createdAt,value
2023-04-08T00:00:30.192Z,8.83
2023-04-08T00:02:57.225Z,8.47
2023-04-08T00:05:24.133Z,8.13
2023-04-08T00:07:51.549Z,7.67
2023-04-08T00:10:18.488Z,8.63
2023-04-08T00:12:45.560Z,8.33
2023-04-08T00:15:12.608Z,8.53
2023-04-08T00:17:39.684Z,7.90
2023-04-08T00:20:07.193Z,7.30
2023-04-08T00:22:34.230Z,8.00
2023-04-08T00:25:01.841Z,8.80
2023-04-08T00:27:29.070Z,7.77
2023-04-08T00:29:56.062Z,7.50
2023-04-08T00:32:23.096Z,8.20
2023-04-08T00:34:50.172Z,6.90
2023-04-08T00:37:17.549Z,7.03
2023-04-08T00:39:44.530Z,6.17
2023-04-08T00:42:11.654Z,6.47
2023-04-08T00:44:38.648Z,7.10
2023-04-08T00:47:05.383Z,6.70
2023-04-08T00:49:32.872Z,7.03
2023-04-08T00:52:00.577Z,6.47
2023-04-08T00:54:27.569Z,6.13
2023-04-08T00:56:54.364Z,6.13
2023-04-08T00:59:21.414Z,6.30
2023-04-08T01:01:55.678Z,6.37
2023-04-08T01:04:50.137Z,6.20
2023-04-08T01:07:28.878Z,6.10
2023-04-08T01:09:59.369Z,5.67
2023-04-08T01:12:28.799Z,5.90
2023-04-08T01:15:06.668Z,6.07
2023-04-08T01:17:36.293Z,5.80
2023-04-08T01:20:05.011Z,6.00
2023-04-08T01:22:48.705Z,5.47
2023-04-08T01:25:19.877Z,6.50
2023-04-08T01:27:49.845Z,6.70
2023-04-08T01:30:19.785Z,5.63
2023-04-08T01:32:48.102Z,6.77
2023-04-08T01:35:17.036Z,6.53
2023-04-08T01:37:45.274Z,6.37
2023-04-08T01:40:12.624Z,6.40
2023-04-08T01:42:40.080Z,5.90
2023-04-08T01:45:09.452Z,7.20
2023-04-08T01:47:38.499Z,6.67
2023-04-08T01:50:07.769Z,6.90
2023-04-08T01:52:37.700Z,6.77
2023-04-08T01:55:05.777Z,6.60
2023-04-08T01:57:35.805Z,5.90
2023-04-08T02:00:12.583Z,6.33
2023-04-08T02:02:42.779Z,6.93
2023-04-08T02:05:10.020Z,6.30
2023-04-08T02:07:36.704Z,6.47
2023-04-08T02:10:04.341Z,6.37
2023-04-08T02:12:31.494Z,6.03
2023-04-08T02:14:58.554Z,6.33
2023-04-08T02:17:43.280Z,5.53
2023-04-08T02:20:17.077Z,5.73
2023-04-08T02:23:02.659Z,5.97
2023-04-08T02:25:31.161Z,5.30
2023-04-08T02:27:59.903Z,5.90
2023-04-08T02:30:28.454Z,6.07
2023-04-08T02:32:57.344Z,5.13
2023-04-08T02:35:24.540Z,5.60
2023-04-08T02:37:51.798Z,5.50
2023-04-08T02:40:32.688Z,6.10
2023-04-08T02:43:00.283Z,5.73
2023-04-08T02:45:42.954Z,5.50
2023-04-08T02:48:10.244Z,4.83
2023-04-08T02:50:37.459Z,4.87
2023-04-08T02:53:04.446Z,5.27
2023-04-08T02:55:31.418Z,4.93
2023-04-08T02:57:58.405Z,5.47
2023-04-08T03:00:25.100Z,4.93
2023-04-08T03:02:52.145Z,5.20
2023-04-08T03:05:19.265Z,4.90
2023-04-08T03:07:45.984Z,4.90
2023-04-08T03:10:13.095Z,5.27
2023-04-08T03:12:39.800Z,5.80
2023-04-08T03:15:07.422Z,5.50
2023-04-08T03:17:34.872Z,5.43
2023-04-08T03:20:05.204Z,5.50
2023-04-08T03:22:32.222Z,5.10
2023-04-08T03:24:59.501Z,5.47
2023-04-08T03:27:26.602Z,5.87
2023-04-08T03:29:53.615Z,5.40
2023-04-08T03:32:20.657Z,6.00
2023-04-08T03:34:47.666Z,5.23
2023-04-08T03:37:14.354Z,5.33
2023-04-08T03:39:41.583Z,4.80
2023-04-08T03:42:08.294Z,4.97
2023-04-08T03:44:35.240Z,4.90
2023-04-08T03:47:01.938Z,5.00
2023-04-08T03:49:28.819Z,4.20
2023-04-08T03:51:55.779Z,4.13
2023-04-08T03:54:22.460Z,4.00
2023-04-08T03:56:50.681Z,3.57
2023-04-08T03:59:17.713Z,3.80
2023-04-08T04:01:44.541Z,3.60
2023-04-08T04:04:11.611Z,3.70
2023-04-08T04:06:38.667Z,4.23
2023-04-08T04:09:05.384Z,4.10
2023-04-08T04:11:34.253Z,3.80
2023-04-08T04:14:00.942Z,3.37
2023-04-08T04:16:27.914Z,3.40
2023-04-08T04:18:54.948Z,3.43
2023-04-08T04:21:21.896Z,3.47
2023-04-08T04:23:48.695Z,3.63
2023-04-08T04:26:15.488Z,3.80
2023-04-08T04:28:42.479Z,3.33
2023-04-08T04:31:18.380Z,3.50
2023-04-08T04:33:45.048Z,3.40
2023-04-08T04:36:12.008Z,3.50
2023-04-08T04:38:39.355Z,3.27
2023-04-08T04:41:06.516Z,3.50
2023-04-08T04:43:33.484Z,3.00
2023-04-08T04:46:00.797Z,2.87
2023-04-08T04:48:27.577Z,2.57
2023-04-08T04:50:59.583Z,2.73
2023-04-08T04:53:26.597Z,2.70
2023-04-08T04:55:53.414Z,2.80
2023-04-08T04:58:20.643Z,2.47
2023-04-08T05:00:47.385Z,2.50
2023-04-08T05:03:14.646Z,2.70
2023-04-08T05:05:41.546Z,2.50
2023-04-08T05:08:08.340Z,2.50
2023-04-08T05:10:35.506Z,2.40
2023-04-08T05:13:02.213Z,2.10
2023-04-08T05:15:29.139Z,2.30
2023-04-08T05:17:56.094Z,2.40
2023-04-08T05:20:23.135Z,2.60
2023-04-08T05:22:50.300Z,2.47
2023-04-08T05:25:17.267Z,1.93
2023-04-08T05:27:44.052Z,2.67
2023-04-08T05:30:11.884Z,2.23
2023-04-08T05:32:38.798Z,2.57
2023-04-08T05:35:06.493Z,2.27
2023-04-08T05:37:33.492Z,2.40
2023-04-08T05:40:00.467Z,2.93
2023-04-08T05:42:27.453Z,2.47
2023-04-08T05:44:54.451Z,2.47
2023-04-08T05:47:21.274Z,2.57
2023-04-08T05:49:49.280Z,2.67
2023-04-08T05:52:17.729Z,2.70
2023-04-08T05:54:44.598Z,2.83
2023-04-08T05:57:11.860Z,2.90
2023-04-08T05:59:38.600Z,3.20
2023-04-08T06:02:05.872Z,3.50
2023-04-08T06:04:33.175Z,3.20
2023-04-08T06:07:02.787Z,3.60
2023-04-08T06:09:29.542Z,3.47
2023-04-08T06:11:57.714Z,4.00
2023-04-08T06:14:24.476Z,3.83
2023-04-08T06:16:53.430Z,3.70
2023-04-08T06:19:20.335Z,4.00
2023-04-08T06:21:47.595Z,3.90
2023-04-08T06:24:14.296Z,4.40
2023-04-08T06:26:41.751Z,4.10
2023-04-08T06:29:08.877Z,4.07
2023-04-08T06:31:35.849Z,4.23
2023-04-08T06:34:02.626Z,4.60
2023-04-08T06:36:29.664Z,4.87
2023-04-08T06:38:56.380Z,4.30
2023-04-08T06:41:23.347Z,4.10
2023-04-08T06:43:50.410Z,4.23
2023-04-08T06:46:17.145Z,3.97
2023-04-08T06:48:44.055Z,4.27
2023-04-08T06:51:11.780Z,4.50
2023-04-08T06:53:38.819Z,4.00
2023-04-08T06:56:06.050Z,4.33
2023-04-08T06:58:32.810Z,4.10
2023-04-08T07:01:01.214Z,3.70
2023-04-08T07:03:28.562Z,4.83
2023-04-08T07:05:55.585Z,3.63
2023-04-08T07:08:22.521Z,3.70
2023-04-08T07:10:49.217Z,3.40
2023-04-08T07:13:16.723Z,3.20
2023-04-08T07:15:43.418Z,3.40
2023-04-08T07:18:10.692Z,3.00
2023-04-08T07:20:38.676Z,4.43
2023-04-08T07:23:05.612Z,2.80
2023-04-08T07:25:34.697Z,2.80
2023-04-08T07:28:02.062Z,2.93
2023-04-08T07:30:28.777Z,3.20
2023-04-08T07:32:57.525Z,2.90
2023-04-08T07:35:26.109Z,2.77
2023-04-08T07:37:53.367Z,3.03
2023-04-08T07:40:20.383Z,3.07
2023-04-08T07:42:47.754Z,3.10
2023-04-08T07:45:14.504Z,2.90
2023-04-08T07:47:41.677Z,2.90
2023-04-08T07:50:08.998Z,3.27
2023-04-08T07:52:36.096Z,3.20
2023-04-08T07:55:02.868Z,2.93
2023-04-08T07:57:29.879Z,3.17
2023-04-08T07:59:56.676Z,3.10
2023-04-08T08:02:23.879Z,3.00
2023-04-08T08:04:51.005Z,2.70
2023-04-08T08:07:18.090Z,2.97
2023-04-08T08:09:45.154Z,3.70
2023-04-08T08:12:12.124Z,3.33
2023-04-08T08:14:39.072Z,2.80
2023-04-08T08:17:06.037Z,3.27
2023-04-08T08:19:33.002Z,2.43
2023-04-08T08:22:00.003Z,2.43
2023-04-08T08:24:26.758Z,2.93
2023-04-08T08:26:53.707Z,2.23
2023-04-08T08:29:20.571Z,2.20
2023-04-08T08:31:48.778Z,2.13
2023-04-08T08:34:16.698Z,2.17
2023-04-08T08:36:43.707Z,2.03
2023-04-08T08:39:10.406Z,2.13
2023-04-08T08:41:38.010Z,2.50
2023-04-08T08:44:08.513Z,2.40
2023-04-08T08:46:35.996Z,3.20
2023-04-08T08:49:02.867Z,2.47
2023-04-08T08:51:32.870Z,2.67
2023-04-08T08:54:03.383Z,2.30
2023-04-08T08:56:30.721Z,3.40
2023-04-08T08:58:57.716Z,2.50
2023-04-08T09:01:35.635Z,2.63
2023-04-08T09:04:20.668Z,3.30
2023-04-08T09:06:50.424Z,3.00
2023-04-08T09:09:17.928Z,3.00
2023-04-08T09:11:46.681Z,3.17
2023-04-08T09:14:24.371Z,3.30
2023-04-08T09:16:51.975Z,2.67
2023-04-08T09:19:19.094Z,3.07
2023-04-08T09:21:46.304Z,2.43
2023-04-08T09:24:29.166Z,3.07
2023-04-08T09:26:56.909Z,3.10
2023-04-08T09:29:26.339Z,2.73
2023-04-08T09:31:59.915Z,2.97
2023-04-08T09:34:29.257Z,3.33
2023-04-08T09:36:57.000Z,2.63
2023-04-08T09:39:24.077Z,2.77
2023-04-08T09:41:52.522Z,2.77
2023-04-08T09:44:21.772Z,2.80
2023-04-08T09:46:52.892Z,2.63
2023-04-08T09:49:25.605Z,3.00
2023-04-08T09:52:01.209Z,2.50
2023-04-08T09:55:04.604Z,2.63
2023-04-08T09:57:35.947Z,2.60
2023-04-08T10:00:14.226Z,2.70
2023-04-08T10:02:56.676Z,2.80
2023-04-08T10:05:25.342Z,2.50
2023-04-08T10:07:52.640Z,2.33
2023-04-08T10:10:21.197Z,2.23
2023-04-08T10:12:49.169Z,2.20
2023-04-08T10:15:26.965Z,2.30
2023-04-08T10:18:20.661Z,2.33
2023-04-08T10:20:49.190Z,1.90
2023-04-08T10:23:17.689Z,2.07
2023-04-08T10:25:48.791Z,2.00
2023-04-08T10:28:17.800Z,1.80
2023-04-08T10:30:49.402Z,1.70
2023-04-08T10:33:42.481Z,1.90
2023-04-08T10:36:13.696Z,2.00
2023-04-08T10:38:42.794Z,2.03
2023-04-08T10:41:21.847Z,1.80
2023-04-08T10:43:49.186Z,2.30
2023-04-08T10:46:17.580Z,1.80
2023-04-08T10:48:44.986Z,1.70
2023-04-08T10:51:12.404Z,1.90
2023-04-08T10:53:39.810Z,1.93
2023-04-08T10:56:13.700Z,1.97
2023-04-08T10:58:55.133Z,2.13
2023-04-08T11:01:22.882Z,1.83
2023-04-08T11:03:50.470Z,2.00
2023-04-08T11:06:18.579Z,2.03
2023-04-08T11:08:45.992Z,2.60
2023-04-08T11:11:12.757Z,2.70
2023-04-08T11:13:51.220Z,2.40
2023-04-08T11:16:21.516Z,2.67
2023-04-08T11:18:49.785Z,2.60
2023-04-08T11:21:17.345Z,2.70
2023-04-08T11:23:44.145Z,2.67
2023-04-08T11:26:11.626Z,2.43
2023-04-08T11:28:38.925Z,2.57
2023-04-08T11:31:06.295Z,2.70
2023-04-08T11:33:35.236Z,2.50
2023-04-08T11:36:05.851Z,2.20
2023-04-08T11:38:32.787Z,2.43
2023-04-08T11:41:00.429Z,2.50
2023-04-08T11:43:27.744Z,2.83
2023-04-08T11:45:54.689Z,2.63
2023-04-08T11:48:22.032Z,2.53
2023-04-08T11:50:51.067Z,2.70
2023-04-08T11:53:38.958Z,2.30
2023-04-08T11:56:19.473Z,2.50
2023-04-08T11:58:46.762Z,2.20
2023-04-08T12:01:14.285Z,1.93
2023-04-08T12:03:54.632Z,1.90
2023-04-08T12:06:22.125Z,1.90
2023-04-08T12:08:49.297Z,2.00
2023-04-08T12:11:19.966Z,2.20
2023-04-08T12:13:47.184Z,2.00
2023-04-08T12:16:14.517Z,2.10
2023-04-08T12:18:41.699Z,2.50
2023-04-08T12:21:08.702Z,2.30
2023-04-08T12:23:35.800Z,2.50
2023-04-08T12:26:02.775Z,2.57
2023-04-08T12:28:29.467Z,2.10
2023-04-08T12:30:56.478Z,2.13
2023-04-08T12:33:23.180Z,2.30
2023-04-08T12:35:49.974Z,2.03
2023-04-08T12:38:17.736Z,2.07
2023-04-08T12:40:44.504Z,1.93
2023-04-08T12:43:11.541Z,2.00
2023-04-08T12:45:38.530Z,2.10
2023-04-08T12:48:05.781Z,2.00
2023-04-08T12:50:32.818Z,2.07
2023-04-08T12:52:59.831Z,2.10
2023-04-08T12:55:26.746Z,2.20
2023-04-08T12:57:54.045Z,2.00
2023-04-08T13:00:20.817Z,2.20
2023-04-08T13:02:47.595Z,2.17
2023-04-08T13:05:14.680Z,1.80
2023-04-08T13:07:41.707Z,2.90
2023-04-08T13:10:09.388Z,2.40
2023-04-08T13:12:36.465Z,2.07
2023-04-08T13:15:03.638Z,2.20
2023-04-08T13:17:30.446Z,2.10
2023-04-08T13:19:57.492Z,2.10
2023-04-08T13:22:24.579Z,1.97
2023-04-08T13:24:51.384Z,2.20
2023-04-08T13:27:18.081Z,2.30
2023-04-08T13:29:45.099Z,2.20
2023-04-08T13:32:12.305Z,2.90
2023-04-08T13:34:39.237Z,1.73
2023-04-08T13:37:06.221Z,2.00
2023-04-08T13:39:32.879Z,1.93
2023-04-08T13:41:59.824Z,2.07
2023-04-08T13:44:26.825Z,2.70
2023-04-08T13:46:53.512Z,2.20
2023-04-08T13:49:20.817Z,2.00
2023-04-08T13:51:47.482Z,1.80
2023-04-08T13:54:14.384Z,1.90
2023-04-08T13:56:41.320Z,1.93
2023-04-08T13:59:08.264Z,2.20
2023-04-08T14:01:35.061Z,2.57
2023-04-08T14:04:02.205Z,2.67
2023-04-08T14:06:29.251Z,2.80
2023-04-08T14:08:56.127Z,3.37
2023-04-08T14:11:23.124Z,3.60
2023-04-08T14:13:49.885Z,3.80
2023-04-08T14:16:16.826Z,3.80
2023-04-08T14:18:43.667Z,3.80
2023-04-08T14:21:10.717Z,4.10
2023-04-08T14:23:37.738Z,4.00
2023-04-08T14:26:04.528Z,4.43
2023-04-08T14:28:31.845Z,4.27
2023-04-08T14:30:58.598Z,4.00
2023-04-08T14:33:25.574Z,4.17
2023-04-08T14:35:53.306Z,3.87
2023-04-08T14:38:21.653Z,4.53
2023-04-08T14:40:48.422Z,4.43
2023-04-08T14:43:15.537Z,4.67
2023-04-08T14:45:42.405Z,5.00
2023-04-08T14:48:09.481Z,4.40
2023-04-08T14:50:36.266Z,4.80
2023-04-08T14:53:03.706Z,4.50
2023-04-08T14:55:32.332Z,4.57
2023-04-08T14:58:01.041Z,4.97
2023-04-08T15:00:28.279Z,6.73
2023-04-08T15:02:55.090Z,7.17
2023-04-08T15:05:22.232Z,7.80
2023-04-08T15:07:48.991Z,8.53
2023-04-08T15:10:15.974Z,8.73
2023-04-08T15:12:42.929Z,8.90
2023-04-08T15:15:10.049Z,7.50
2023-04-08T15:17:37.068Z,8.03
2023-04-08T15:20:04.296Z,7.37
2023-04-08T15:22:31.091Z,8.63
2023-04-08T15:24:57.847Z,8.27
2023-04-08T15:27:26.889Z,9.73
2023-04-08T15:29:53.706Z,7.73
2023-04-08T15:32:20.945Z,7.33
2023-04-08T15:34:48.409Z,6.53
2023-04-08T15:37:15.421Z,8.40
2023-04-08T15:39:42.494Z,8.37
2023-04-08T15:42:09.264Z,8.67
2023-04-08T15:44:36.521Z,8.83
2023-04-08T15:47:03.619Z,7.87
2023-04-08T15:49:30.396Z,8.83
2023-04-08T15:51:57.355Z,8.33
2023-04-08T15:54:24.085Z,8.70
2023-04-08T15:56:51.167Z,8.73
2023-04-08T15:59:18.146Z,8.40
2023-04-08T16:01:45.220Z,9.90
2023-04-08T16:04:12.116Z,9.40
2023-04-08T16:06:39.244Z,9.30
2023-04-08T16:09:06.545Z,9.53
2023-04-08T16:11:34.567Z,9.07
2023-04-08T16:14:02.114Z,8.53
2023-04-08T16:16:28.928Z,8.17
2023-04-08T16:18:56.634Z,8.07
2023-04-08T16:21:23.605Z,7.80
2023-04-08T16:23:50.627Z,8.17
2023-04-08T16:26:17.589Z,8.53
2023-04-08T16:28:44.643Z,7.70
2023-04-08T16:31:11.563Z,8.17
2023-04-08T16:33:38.677Z,8.23
2023-04-08T16:36:05.580Z,8.13
2023-04-08T16:38:33.350Z,7.63
2023-04-08T16:41:00.583Z,8.33
2023-04-08T16:43:28.138Z,9.27
2023-04-08T16:45:54.966Z,8.40
2023-04-08T16:48:23.142Z,7.70
2023-04-08T16:50:50.170Z,8.10
2023-04-08T16:53:16.846Z,8.27
2023-04-08T16:55:43.546Z,8.00
2023-04-08T16:58:10.496Z,7.73
2023-04-08T17:00:38.868Z,8.47
2023-04-08T17:03:06.121Z,8.00
2023-04-08T17:05:33.502Z,7.90
2023-04-08T17:08:00.545Z,8.00
2023-04-08T17:10:27.343Z,7.40
2023-04-08T17:12:54.121Z,6.90
2023-04-08T17:15:21.327Z,7.57
2023-04-08T17:17:48.613Z,7.80
2023-04-08T17:20:15.734Z,6.93
2023-04-08T17:22:42.801Z,8.00
2023-04-08T17:25:10.039Z,6.53
2023-04-08T17:27:37.011Z,7.03
2023-04-08T17:30:04.302Z,7.13
2023-04-08T17:32:31.415Z,6.57
2023-04-08T17:34:58.452Z,6.80
2023-04-08T17:37:25.343Z,7.57
2023-04-08T17:39:52.110Z,6.60
2023-04-08T17:42:22.696Z,7.30
2023-04-08T17:44:49.540Z,7.07
2023-04-08T17:47:16.631Z,7.07
2023-04-08T17:49:43.471Z,7.10
2023-04-08T17:52:10.541Z,6.43
2023-04-08T17:54:37.304Z,7.30
2023-04-08T17:57:04.215Z,7.43
2023-04-08T17:59:31.360Z,7.33
2023-04-08T18:01:58.166Z,7.57
2023-04-08T18:04:25.049Z,7.67
2023-04-08T18:06:52.355Z,8.43
2023-04-08T18:09:19.100Z,8.03
2023-04-08T18:11:45.795Z,8.40
2023-04-08T18:14:12.943Z,8.43
2023-04-08T18:16:39.748Z,7.47
2023-04-08T18:19:06.939Z,8.27
2023-04-08T18:21:33.706Z,7.97
2023-04-08T18:24:01.304Z,8.07
2023-04-08T18:26:28.502Z,8.53
2023-04-08T18:28:55.632Z,9.07
2023-04-08T18:31:24.576Z,9.33
2023-04-08T18:33:52.242Z,9.30
2023-04-08T18:36:19.302Z,9.90
2023-04-08T18:38:46.113Z,9.80
2023-04-08T18:41:13.602Z,9.13
2023-04-08T18:43:40.650Z,9.17
2023-04-08T18:46:07.826Z,9.57
2023-04-08T18:48:34.920Z,10.20
2023-04-08T18:51:02.084Z,10.00
2023-04-08T18:53:28.963Z,10.13
2023-04-08T18:55:56.504Z,10.17
2023-04-08T18:58:23.551Z,10.17
2023-04-08T19:00:50.264Z,10.20
2023-04-08T19:03:17.360Z,10.50
2023-04-08T19:05:44.153Z,11.30
2023-04-08T19:08:11.185Z,10.30
2023-04-08T19:10:37.898Z,10.70
2023-04-08T19:13:04.632Z,11.27
2023-04-08T19:15:31.710Z,10.90
2023-04-08T19:17:59.142Z,10.77
2023-04-08T19:20:27.482Z,12.17
2023-04-08T19:22:55.657Z,11.10
2023-04-08T19:25:22.694Z,11.23
2023-04-08T19:27:49.463Z,11.47
2023-04-08T19:30:16.378Z,11.70
2023-04-08T19:32:43.451Z,12.53
2023-04-08T19:35:13.746Z,11.47
2023-04-08T19:37:41.083Z,12.27
2023-04-08T19:40:09.409Z,13.07
2023-04-08T19:42:36.740Z,14.27
2023-04-08T19:45:05.237Z,13.00
2023-04-08T19:47:32.055Z,13.17
2023-04-08T19:50:00.059Z,13.20
2023-04-08T19:52:26.843Z,12.53
2023-04-08T19:54:53.728Z,14.60
2023-04-08T19:57:21.252Z,13.60
2023-04-08T19:59:48.787Z,14.57
2023-04-08T20:02:16.086Z,14.30
2023-04-08T20:04:44.731Z,15.30
2023-04-08T20:07:12.146Z,14.27
2023-04-08T20:09:38.998Z,13.50
2023-04-08T20:12:06.494Z,14.43
2023-04-08T20:14:35.765Z,13.03
2023-04-08T20:17:02.987Z,13.93
2023-04-08T20:19:30.066Z,13.50
2023-04-08T20:21:57.426Z,14.30
2023-04-08T20:24:24.444Z,13.43
2023-04-08T20:26:52.484Z,13.33
2023-04-08T20:29:19.738Z,13.23
2023-04-08T20:31:46.880Z,13.90
2023-04-08T20:34:14.068Z,14.17
2023-04-08T20:36:41.130Z,13.23
2023-04-08T20:39:11.090Z,13.50
2023-04-08T20:41:38.463Z,13.63
2023-04-08T20:44:06.953Z,14.67
2023-04-08T20:46:35.041Z,15.53
2023-04-08T20:49:03.903Z,15.23
2023-04-08T20:51:33.720Z,12.97
2023-04-08T20:54:00.678Z,13.87
2023-04-08T20:56:27.726Z,13.53
2023-04-08T20:58:54.661Z,14.03
2023-04-08T21:01:23.931Z,13.87
2023-04-08T21:03:51.074Z,14.30
2023-04-08T21:06:19.248Z,13.97
2023-04-08T21:08:46.916Z,14.73
2023-04-08T21:11:14.480Z,14.13
2023-04-08T21:13:41.543Z,13.10
2023-04-08T21:16:08.501Z,14.53
2023-04-08T21:18:38.666Z,13.93
2023-04-08T21:21:05.729Z,13.47
2023-04-08T21:23:32.691Z,14.03
2023-04-08T21:26:01.352Z,14.43
2023-04-08T21:28:29.699Z,13.93
2023-04-08T21:30:56.683Z,13.43
2023-04-08T21:33:23.677Z,13.37
2023-04-08T21:35:50.588Z,14.17
2023-04-08T21:38:17.564Z,13.37
2023-04-08T21:40:44.588Z,13.23
2023-04-08T21:43:11.462Z,13.00
2023-04-08T21:45:38.505Z,13.57
2023-04-08T21:48:05.643Z,12.73
2023-04-08T21:50:32.532Z,12.80
2023-04-08T21:52:59.591Z,12.90
2023-04-08T21:55:27.103Z,13.77
2023-04-08T21:57:54.090Z,14.63
2023-04-08T22:00:20.926Z,13.20
2023-04-08T22:02:47.991Z,14.00
2023-04-08T22:05:14.961Z,13.27
2023-04-08T22:07:42.073Z,13.23
2023-04-08T22:10:09.375Z,14.70
2023-04-08T22:12:36.386Z,13.00
2023-04-08T22:15:04.016Z,14.33
2023-04-08T22:17:30.824Z,13.93
2023-04-08T22:19:57.611Z,13.03
2023-04-08T22:22:24.676Z,13.50
2023-04-08T22:24:51.443Z,13.60
2023-04-08T22:27:18.385Z,14.53
2023-04-08T22:29:45.354Z,13.40
2023-04-08T22:32:12.210Z,15.17
2023-04-08T22:34:39.170Z,14.80
2023-04-08T22:37:05.917Z,14.63
2023-04-08T22:39:32.639Z,13.97
2023-04-08T22:41:59.596Z,13.67
2023-04-08T22:44:26.341Z,15.27
2023-04-08T22:46:53.127Z,15.07
2023-04-08T22:49:20.141Z,13.67
2023-04-08T22:51:47.457Z,14.87
2023-04-08T22:54:14.216Z,14.17
2023-04-08T22:56:41.467Z,14.10
2023-04-08T22:59:08.251Z,15.40
2023-04-08T23:01:36.159Z,15.60
2023-04-08T23:04:03.014Z,13.47
2023-04-08T23:06:30.011Z,14.13
2023-04-08T23:08:56.751Z,12.93
2023-04-08T23:11:23.708Z,13.57
2023-04-08T23:13:50.364Z,14.37
2023-04-08T23:16:17.407Z,14.10
2023-04-08T23:18:44.164Z,14.67
2023-04-08T23:21:11.498Z,14.43
2023-04-08T23:23:38.195Z,13.87
2023-04-08T23:26:05.473Z,15.63
2023-04-08T23:28:32.148Z,14.20
2023-04-08T23:30:58.830Z,16.33
2023-04-08T23:33:26.736Z,15.20
2023-04-08T23:35:53.877Z,14.63
2023-04-08T23:38:21.025Z,15.93
2023-04-08T23:40:48.202Z,16.20
2023-04-08T23:43:15.030Z,15.60
2023-04-08T23:45:41.740Z,15.97
2023-04-08T23:48:10.166Z,15.77
2023-04-08T23:50:37.082Z,14.43
2023-04-08T23:53:04.196Z,13.63
2023-04-08T23:55:30.930Z,14.80
2023-04-08T23:57:58.131Z,15.30
